WEATHER DATA

YESTERDAY
Time Temp. Dewp. Hum. Wind dir Wind speed Wind gust Bar. 1h Prec. 24h Prec.
00:03 12.7 5.4 61 302 0.3 1.1 1026.2 0.0000 0.0000
00:14 12.6 5.3 61 270 0.3 0.8 1026.2 0.0000 0.0000
00:24 12.5 5.4 62 270 0.3 1.1 1026.2 0.0000 0.0000
00:34 12.4 5.3 62 270 0.3 0.8 1026.2 0.0000 0.0000
00:45 12.3 5.2 62 270 0.3 1.1 1026 0.0000 0.0000
00:55 12.2 5.1 62 307 0.3 1.1 1026 0.0000 0.0000
01:04 12.1 5 62 302 0.3 1.1 1025.9 0.0000 0.0000
01:14 12 5 62 270 0.3 0.8 1026 0.0000 0.0000
01:25 11.8 4.8 62 270 0.3 1.1 1026.1 0.0000 0.0000
01:35 11.7 4.9 63 270 0.3 1.1 1026.1 0.0000 0.0000
01:45 11.7 4.9 63 270 0.3 1.1 1026.1 0.0000 0.0000
01:55 11.6 4.8 63 270 0.3 1.1 1026 0.0000 0.0000
02:05 11.4 4.6 63 270 0.3 1.1 1026 0.0000 0.0000
02:15 11.2 4.4 63 270 0.3 1.1 1026 0.0000 0.0000
02:25 11 4.2 63 270 0.3 1.1 1026 0.0000 0.0000
02:36 10.9 4.4 64 270 0.3 1.1 1026 0.0000 0.0000
02:46 10.7 4.2 64 270 0.3 1.1 1026 0.0000 0.0000
02:55 10.6 4.1 64 270 0.3 1.1 1025.9 0.0000 0.0000
03:05 10.5 4.2 65 270 0.3 0.8 1025.8 0.0000 0.0000
03:16 10.4 4.1 65 270 0.3 1.1 1025.8 0.0000 0.0000
03:26 10.3 4 65 270 0.3 1.1 1025.7 0.0000 0.0000
03:36 10.3 4 65 270 0.3 1.1 1025.4 0.0000 0.0000
03:46 10.2 3.9 65 270 0.3 1.1 1025.5 0.0000 0.0000
03:56 10.2 3.9 65 270 0.3 1.1 1025.5 0.0000 0.0000
04:06 10.1 3.8 65 270 0.3 1.1 1025.5 0.0000 0.0000
04:16 10 3.7 65 270 0.3 1.1 1025.5 0.0000 0.0000
04:27 9.9 3.9 66 270 0.3 1.1 1025.4 0.0000 0.0000
04:37 9.8 3.8 66 270 0.3 1.1 1025.4 0.0000 0.0000
04:46 9.6 3.6 66 270 0.3 1.1 1025.3 0.0000 0.0000
04:57 9.5 3.5 66 270 0.3 0.8 1025.4 0.0000 0.0000
05:07 9.4 3.4 66 270 0.3 1.1 1025.5 0.0000 0.0000
05:17 9.3 3.3 66 270 0.3 1.1 1025.3 0.0000 0.0000
05:27 9.2 3.2 66 270 0.3 1.1 1025.2 0.0000 0.0000
05:38 9.1 3.1 66 270 0.3 1.1 1025.2 0.0000 0.0000
05:47 9.1 3.1 66 270 0.3 1.1 1025.1 0.0000 0.0000
05:57 9 3.2 67 270 0.3 0.8 1025.1 0.0000 0.0000
06:07 9 3.2 67 270 0.3 1.1 1025 0.0000 0.0000
06:18 9 3.2 67 270 0.3 0.8 1025 0.0000 0.0000
06:28 9 3.2 67 270 0.3 0.8 1025.1 0.0000 0.0000
06:37 9 3.2 67 270 0.3 1.1 1025 0.0000 0.0000
06:48 9 3.2 67 270 0.3 0.8 1025.1 0.0000 0.0000
06:58 9 3.2 67 270 0.3 1.1 1025 0.0000 0.0000
07:08 9 3.2 67 306 0.3 0.8 1025.1 0.0000 0.0000
07:18 9 3.2 67 270 0.3 1.1 1025.3 0.0000 0.0000
07:29 9 3.2 67 309 0.3 0.8 1025.3 0.0000 0.0000
07:38 9 3.2 67 315 0.3 0.8 1025.4 0.0000 0.0000
07:48 9 3.2 67 270 0.3 0.8 1025.8 0.0000 0.0000
07:59 9.1 3.5 68 270 0.3 1.1 1025.8 0.0000 0.0000
08:09 9.1 3.5 68 270 0.3 1.1 1025.8 0.0000 0.0000
08:19 9.1 3.5 68 270 0.3 1.1 1026 0.0000 0.0000
08:28 9.2 3.6 68 270 0.3 1.1 1026 0.0000 0.0000
08:39 9.3 3.7 68 270 0.3 1.1 1025.9 0.0000 0.0000
08:49 9.5 4.1 69 270 0.3 1.1 1026 0.0000 0.0000
08:59 9.9 4.5 69 270 0.3 1.1 1026.1 0.0000 0.0000
09:09 10.2 4.8 69 270 0.3 1.1 1025.9 0.0000 0.0000
09:20 10.5 5.1 69 270 0.8 1.4 1025.9 0.0000 0.0000
09:29 10.7 5.3 69 270 0.3 1.1 1025.7 0.0000 0.0000
09:39 11 5.3 68 270 0.8 1.4 1025.9 0.0000 0.0000
09:50 11.4 5.7 68 270 0.8 1.4 1025.8 0.0000 0.0000
10:00 11.8 5.9 67 270 0.8 1.1 1025.7 0.0000 0.0000
10:10 12.1 6.2 67 308 0.3 0.8 1025.8 0.0000 0.0000
10:20 12.4 6.2 66 270 0.8 1.4 1025.8 0.0000 0.0000
10:30 12.8 6.4 65 270 0.3 1.4 1025.6 0.0000 0.0000
10:40 13.1 6.5 64 270 0.8 1.4 1025.6 0.0000 0.0000
10:50 13.5 6.8 64 270 0.8 1.9 1025.4 0.0000 0.0000
11:01 14 6.8 62 270 0.8 1.4 1025.5 0.0000 0.0000
11:11 14.1 6.7 61 270 0.8 1.4 1025.4 0.0000 0.0000
11:20 14.4 7 61 270 0.8 1.4 1025.5 0.0000 0.0000
11:30 14.6 6.9 60 270 0.8 1.4 1025.3 0.0000 0.0000
11:41 14.7 6.8 59 270 0.8 1.9 1025.4 0.0000 0.0000
11:51 15 7.1 59 282 0.8 1.9 1025.3 0.0000 0.0000
12:01 15.5 7.3 58 281 0.8 1.4 1025.3 0.0000 0.0000
12:11 18.1 8.9 55 280 0.8 1.9 1025.1 0.0000 0.0000
12:21 18.2 8.2 52 270 0.8 1.9 1025.1 0.0000 0.0000
12:31 17.9 7.9 52 270 0.8 2.5 1024.9 0.0000 0.0000
12:41 17.7 7.4 51 270 0.8 1.9 1024.8 0.0000 0.0000
12:52 17.5 7.3 51 270 0.3 1.4 1024.8 0.0000 0.0000
13:02 17.4 6.9 50 270 0.8 1.4 1024.7 0.0000 0.0000
13:11 17.4 6.6 49 270 0.8 2.2 1024.6 0.0000 0.0000
13:21 17.3 6.8 50 270 0.8 1.9 1024.5 0.0000 0.0000
13:32 17.3 6.8 50 270 0.8 1.9 1024.3 0.0000 0.0000
13:42 17.3 6.2 48 310 0.3 1.1 1024.1 0.0000 0.0000
13:52 17.5 6.4 48 270 0.8 1.9 1024 0.0000 0.0000
14:02 17.7 6.6 48 270 0.8 1.4 1023.9 0.0000 0.0000
14:12 17.8 6.7 48 257 0.8 1.9 1023.7 0.0000 0.0000
14:22 18.1 6.6 47 270 0.8 1.9 1023.7 0.0000 0.0000
14:32 18.2 6.7 47 270 0.8 1.9 1023.6 0.0000 0.0000
14:43 18.4 7.2 48 259 0.8 2.2 1023.5 0.0000 0.0000
14:53 18.7 7.5 48 270 0.8 1.4 1023.4 0.0000 0.0000
15:02 18.9 7.4 47 270 0.8 1.9 1023.2 0.0000 0.0000
15:13 19 7.1 46 270 0.3 1.1 1023.2 0.0000 0.0000
15:23 19.2 7.3 46 270 0.8 1.9 1023.1 0.0000 0.0000
15:33 19.4 7.2 45 270 0.8 1.9 1022.7 0.0000 0.0000
15:43 19.6 7.4 45 270 0.8 1.9 1022.6 0.0000 0.0000
15:53 19.7 7.4 45 270 0.3 1.4 1022.5 0.0000 0.0000
16:03 19.9 7.6 45 270 0.8 1.4 1022.3 0.0000 0.0000
16:13 20 7.4 44 257 0.8 1.4 1022.1 0.0000 0.0000
16:23 20.1 7.5 44 270 0.8 1.9 1022 0.0000 0.0000
16:34 20.1 7.5 44 270 0.8 1.4 1021.9 0.0000 0.0000
16:43 20.2 7.2 43 270 0.8 1.1 1021.8 0.0000 0.0000
16:53 20.2 7.6 44 270 0.8 1.4 1021.7 0.0000 0.0000
17:04 20.2 7.6 44 259 0.8 1.9 1021.6 0.0000 0.0000
17:14 20.2 7.6 44 270 0.8 1.1 1021.5 0.0000 0.0000
17:24 20.2 7.2 43 270 0.3 1.4 1021.3 0.0000 0.0000
17:34 20.2 7.6 44 270 0.3 1.1 1021.3 0.0000 0.0000
17:44 20.2 7.6 44 270 0.8 1.4 1021.2 0.0000 0.0000
17:54 20.2 7.6 44 270 0.3 1.1 1021.2 0.0000 0.0000
18:04 20 7.4 44 270 0.3 1.1 1021.1 0.0000 0.0000
18:15 20 7.4 44 270 0.8 1.4 1021 0.0000 0.0000
18:25 19.9 7.6 45 270 0.3 1.1 1021 0.0000 0.0000
18:34 19.7 7.4 45 270 0.3 1.1 1020.9 0.0000 0.0000
18:44 19.6 7.7 46 270 0.3 1.1 1020.9 0.0000 0.0000
18:55 19.4 7.5 46 270 0.3 1.4 1020.9 0.0000 0.0000
19:05 19.2 7.6 47 270 0.3 1.1 1020.8 0.0000 0.0000
19:15 19.1 7.5 47 270 0.3 1.1 1020.7 0.0000 0.0000
19:25 18.9 8 49 270 0.3 1.1 1020.7 0.0000 0.0000
19:35 18.7 7.8 49 306 0.3 1.1 1020.9 0.0000 0.0000
19:45 18.5 7.3 48 315 0.3 1.1 1020.9 0.0000 0.0000
19:55 18.3 7.4 49 302 0.3 1.1 1020.9 0.0000 0.0000
20:06 18.1 7.2 49 302 0.3 1.1 1020.9 0.0000 0.0000
20:15 18 7.4 50 302 0.3 1.1 1020.8 0.0000 0.0000
20:25 17.8 7.5 51 270 0.3 1.1 1020.7 0.0000 0.0000
20:35 17.6 7.6 52 270 0.3 1.1 1020.8 0.0000 0.0000
20:46 17.4 7.5 52 270 0.3 1.1 1020.7 0.0000 0.0000
20:56 17.2 7.3 52 270 0.3 1.1 1020.6 0.0000 0.0000
21:05 17 7.4 53 270 0.3 1.1 1020.4 0.0000 0.0000
21:16 16.8 7.2 53 270 0.3 1.1 1020.5 0.0000 0.0000
21:26 16.7 7.1 53 270 0.3 1.1 1020.4 0.0000 0.0000
21:36 16.6 7 53 270 0.3 1.1 1020.3 0.0000 0.0000
21:46 16.4 7.1 54 270 0.3 1.1 1020.1 0.0000 0.0000
21:57 16.1 6.5 53 270 0.3 1.4 1020.2 0.0000 0.0000
22:06 16 6.4 53 270 0.3 1.4 1020.2 0.0000 0.0000
22:16 15.8 6.5 54 270 0.3 1.4 1020.1 0.0000 0.0000
22:27 15.6 6.3 54 270 0.8 1.1 1020.1 0.0000 0.0000
22:37 15.3 6.3 55 270 0.3 1.4 1020.1 0.0000 0.0000
22:48 15 6 55 270 0.8 1.1 1019.8 0.0000 0.0000
22:58 14.8 6.1 56 270 0.3 1.1 1019.8 0.0000 0.0000
23:08 14.7 6.3 57 270 0.3 1.1 1019.7 0.0000 0.0000
23:18 14.5 6.1 57 270 0.8 1.1 1019.7 0.0000 0.0000
23:28 14.3 5.9 57 270 0.3 1.1 1019.7 0.0000 0.0000
23:38 14.2 6.1 58 270 0.3 1.1 1019.5 0.0000 0.0000
23:49 14.1 6 58 270 0.8 1.1 1019.5 0.0000 0.0000

DAY STATISTIC

2019-09-20
TEMPERATURE
AVERAGE
14.4
HIGH
20.2
16:43
LOW
9.0
05:57
PRESSURE
AVERAGE
1023.7
HIGH
1026.2
00:03
LOW
1019.5
23:38
DEWPOINT
AVERAGE
5.8
HIGH
8.9
12:11
LOW
3.1
05:38
HUMIDITY
AVERAGE
57
HIGH
69
08:49
LOW
43
16:43
WIND SPEED
AVERAGE
0.5
HIGH
0.8
09:20
WIND GUST
AVERAGE
1.3
HIGH
2.5
12:31
WIND DIRECTION
PREVAILING
W
90.8%
N
0.0
NE
0.0
E
0.0
SE
0.0
S
0.0
SW
0.0
W
90.8
NW
9.2
PRECIPITATION
RAIN HOUR
0.0
RAIN DAY
0.0
TEMPERATURE (°C)
LOW
9.0
HIGH
20.2
AVERAGE
14.4
PRESSURE (hpa)
LOW
1019.5
HIGH
1026.2
AVERAGE
1023.7
DEVICE